Latest Weather Observations for Merimbula

IDN60801

Issued at 2:12 pm EDT Friday 16 November 2018 (issued every 10 minutes, with the page automatically refreshed every 10 minutes)

About weather observations | Map of weather stations | Latest weather observations for NSW | Other Formats
Station Details ID: 069147 Name: MERIMBULA AIRPORT AWS Lat: -36.91 Lon: 149.90 Height: 1.5 m
Data from the previous 72 hours. | See also: Recent months at Merimbula
Date/Time
EDT
Temp
°C
App
Temp
°C
Dew
Point
°C
Rel
Hum
%
Delta-T
°C
Wind Press
QNH
hPa
Press
MSL
hPa
Rain since
9am
mm
Dir  Spd
km/h
Gust
km/h
Spd
kts
Gust
kts
16/02:00pm 20.2 18.3 11.9 59 4.6 E 13 20 7 11 1020.2 1020.2 0.0
16/01:30pm 18.7 17.0 11.3 62 4.0 E 11 17 6 9 1020.6 1020.6 0.0
16/01:00pm 18.5 16.3 10.8 61 4.1 ESE 13 17 7 9 1020.8 1020.8 0.0
16/12:30pm 19.3 17.6 11.3 60 4.4 ESE 11 17 6 9 1021.1 1021.1 0.0
16/12:00pm 17.5 16.0 10.4 63 3.8 E 9 13 5 7 1021.5 1021.5 0.0
16/11:30am 17.9 17.1 11.0 64 3.7 ESE 6 9 3 5 1021.8 1021.8 0.0
16/11:00am 17.2 17.3 10.3 64 3.6 CALM 0 6 0 3 1022.1 1022.1 0.0
16/10:30am 16.7 15.4 9.9 64 3.6 NNE 7 9 4 5 1022.4 1022.4 0.0
16/10:00am 17.1 16.1 10.2 64 3.6 NE 6 15 3 8 1022.3 1022.3 0.0
16/09:30am 17.1 15.5 10.2 64 3.7 NNW 9 11 5 6 1022.3 1022.3 0.0
16/09:00am 16.4 15.9 10.7 69 3.0 WNW 4 9 2 5 1022.4 1022.4 0.0
16/08:30am 15.1 13.8 10.1 72 2.6 W 7 11 4 6 1022.7 1022.7 0.0
16/08:00am 14.5 12.9 10.3 76 2.2 WNW 9 13 5 7 1022.9 1022.9 0.0
16/07:30am 14.0 13.0 10.4 79 1.9 WNW 6 11 3 6 1022.8 1022.8 0.0
16/07:00am 13.2 11.4 9.6 79 1.8 W 9 11 5 6 1022.8 1022.8 0.0
16/06:30am 12.6 10.7 9.1 79 1.8 WNW 9 11 5 6 1022.8 1022.8 0.0
16/06:00am 12.4 10.5 9.1 80 1.7 W 9 11 5 6 1022.9 1022.9 0.0
16/05:30am 12.8 12.6 8.9 77 2.0 CALM 0 0 0 0 1022.7 1022.7 0.0
16/05:00am 13.0 11.7 9.3 78 1.9 WNW 6 13 3 7 1022.8 1022.8 0.0
16/04:30am 12.9 12.6 8.6 75 2.1 CALM 0 0 0 0 1022.6 1022.6 0.0
16/04:00am 13.1 10.9 9.5 79 1.8 WNW 11 15 6 8 1022.8 1022.8 0.0
16/03:30am 12.2 10.8 9.0 81 1.6 N 6 9 3 5 1023.1 1023.1 0.0
16/03:00am 12.6 11.0 7.9 73 2.3 E 6 9 3 5 1023.5 1023.5 0.0
16/02:30am 12.4 10.6 7.1 70 2.6 SSW 6 9 3 5 1023.5 1023.5 0.0
16/02:00am 13.0 11.0 7.0 67 2.9 W 7 11 4 6 1023.7 1023.7 0.0
16/01:30am 13.4 10.9 6.5 63 3.3 WNW 9 13 5 7 1023.9 1023.9 0.0
16/01:00am 13.4 10.9 6.5 63 3.3 WNW 9 13 5 7 1024.2 1024.2 0.0
16/12:30am 13.3 10.7 6.2 62 3.4 WNW 9 13 5 7 1024.5 1024.5 0.0
16/12:00am 13.0 10.1 6.4 64 3.1 WNW 11 17 6 9 1024.8 1024.8 0.0
 
Date/Time
EDT
Temp
°C
App
Temp
°C
Dew
Point
°C
Rel
Hum
%
Delta-T
°C
Wind Press
QNH
hPa
Press
MSL
hPa
Rain since
9am
mm
Dir  Spd
km/h
Gust
km/h
Spd
kts
Gust
kts
15/11:30pm 13.6 11.5 6.7 63 3.3 WSW 7 9 4 5 1024.8 1024.8 0.0
15/11:00pm 13.5 11.4 6.6 63 3.3 WSW 7 11 4 6 1024.9 1024.9 0.0
15/10:30pm 13.4 11.5 6.5 63 3.3 WSW 6 9 3 5 1025.1 1025.1 0.0
15/10:00pm 13.0 10.8 6.4 64 3.1 SSW 7 9 4 5 1025.1 1025.1 0.0
15/09:30pm 13.7 11.6 5.8 59 3.7 SW 6 9 3 5 1024.9 1024.9 0.0
15/09:00pm 14.3 11.6 5.7 56 4.1 WSW 9 13 5 7 1024.8 1024.8 0.0
15/08:30pm 14.5 12.1 5.3 54 4.3 WSW 7 11 4 6 1024.4 1024.4 0.0
15/08:00pm 15.0 12.1 4.7 50 4.8 S 9 13 5 7 1024.0 1024.0 0.0
15/07:30pm 15.8 11.6 3.6 44 5.6 S 15 22 8 12 1023.9 1023.9 0.0
15/07:00pm 16.5 13.3 5.2 47 5.4 S 11 17 6 9 1023.1 1023.1 0.0
15/06:30pm 17.3 12.7 3.6 40 6.4 SSW 17 24 9 13 1022.6 1022.6 0.0
15/06:00pm 17.4 12.8 3.7 40 6.4 SSW 17 24 9 13 1022.2 1022.2 0.0
15/05:30pm 18.9 14.1 5.7 42 6.5 SSW 20 30 11 16 1022.0 1022.0 0.0
15/05:00pm 18.1 13.7 7.5 50 5.3 SSW 20 30 11 16 1021.3 1021.3 0.0
15/04:30pm 19.3 16.1 8.6 50 5.6 SSW 15 28 8 15 1021.1 1021.1 0.0
15/04:00pm 19.2 15.2 9.1 52 5.3 SSW 20 30 11 16 1021.1 1021.1 0.0
15/03:47pm 19.0 15.6 9.2 53 5.1 S 17 26 9 14 1021.0 1021.0 0.0
15/03:30pm 18.9 16.5 8.8 52 5.3 SW 11 24 6 13 1021.0 1021.0 0.0
15/03:29pm 18.9 16.5 8.6 51 5.3 SSW 11 20 6 11 1021.0 1021.0 0.0
15/03:00pm 18.6 15.2 9.1 54 5.0 SW 17 26 9 14 1021.4 1021.4 0.0
15/02:30pm 17.9 14.2 9.3 57 4.5 SSW 19 30 10 16 1021.5 1021.5 0.0
15/02:00pm 17.6 14.4 9.8 60 4.1 SSW 17 28 9 15 1021.6 1021.6 0.0
15/01:30pm 17.0 12.8 9.7 62 3.8 SSW 22 35 12 19 1021.4 1021.4 0.0
15/01:00pm 17.2 14.0 10.1 63 3.7 S 17 28 9 15 1021.1 1021.1 0.0
15/12:30pm 17.5 13.9 9.7 60 4.1 S 19 33 10 18 1021.0 1021.0 0.0
15/12:00pm 18.4 15.7 10.3 59 4.3 SSW 15 22 8 12 1020.9 1020.9 0.0
15/11:30am 18.0 14.7 9.6 58 4.4 SSW 17 26 9 14 1020.9 1020.9 0.0
15/11:00am 18.2 16.0 10.8 62 4.0 S 13 20 7 11 1020.8 1020.8 0.0
15/10:30am 17.7 14.2 10.3 62 3.9 SSW 19 30 10 16 1020.8 1020.8 0.0
15/10:00am 17.4 14.4 10.5 64 3.7 SSW 17 24 9 13 1020.5 1020.5 0.0
15/09:30am 17.1 15.2 11.8 71 2.9 S 13 17 7 9 1020.5 1020.5 0.0
15/09:00am 16.4 13.6 11.3 72 2.7 SSW 17 26 9 14 1020.3 1020.3 14.4
15/08:30am 16.4 15.1 12.4 77 2.2 SSW 11 17 6 9 1019.8 1019.8 14.4
15/08:00am 15.3 14.4 12.6 84 1.5 SW 9 15 5 8 1019.5 1019.5 14.4
15/07:30am 15.3 14.0 12.4 83 1.6 SSE 11 15 6 8 1019.0 1019.0 14.4
15/07:00am 14.6 14.3 12.6 88 1.1 S 6 9 3 5 1018.6 1018.6 14.4
15/06:30am 14.2 13.9 12.6 90 0.9 SSW 6 7 3 4 1018.1 1018.1 14.4
15/06:00am 14.3 14.9 13.2 93 0.6 SE 2 7 1 4 1017.7 1017.7 14.4
15/05:30am 14.4 13.7 13.1 92 0.7 SSW 9 15 5 8 1017.4 1017.4 14.4
15/05:27am 14.5 13.8 13.2 92 0.7 SW 9 15 5 8 1017.3 1017.3 14.4
15/05:06am 14.5 13.0 13.2 92 0.7 SSW 13 17 7 9 1017.1 1017.1 13.8
15/05:00am 14.5 12.6 13.0 91 0.8 SSW 15 20 8 11 1017.1 1017.1 13.2
15/04:30am 14.8 13.3 13.0 89 1.0 SSW 13 20 7 11 1016.4 1016.4 12.8
15/04:00am 15.2 14.6 13.6 90 0.9 SSW 9 19 5 10 1016.3 1016.3 12.4
15/03:30am 15.6 15.3 14.5 93 0.6 S 9 15 5 8 1016.1 1016.1 12.4
15/03:00am 15.8 15.6 14.8 94 0.6 S 9 15 5 8 1015.8 1015.8 12.2
15/02:54am 15.9 15.9 15.1 95 0.5 S 9 15 5 8 1015.9 1015.9 12.2
15/02:30am 16.2 16.3 15.6 96 0.3 S 9 13 5 7 1015.9 1015.9 11.2
15/02:19am 16.3 17.0 15.7 96 0.4 S 6 9 3 5 1015.9 1015.9 10.6
15/02:14am 16.2 17.3 15.7 97 0.3 SSE 4 9 2 5 1015.9 1015.9 10.6
15/02:00am 16.0 17.8 15.4 96 0.3 CALM 0 6 0 3 1016.1 1016.1 10.0
15/01:30am 15.6 17.2 15.0 96 0.3 CALM 0 6 0 3 1016.1 1016.1 10.0
15/01:19am 15.5 16.0 14.9 96 0.3 WNW 6 7 3 4 1016.2 1016.2 10.0
15/01:14am 15.4 15.6 14.8 96 0.3 NW 7 9 4 5 1016.2 1016.2 10.0
15/01:00am 14.7 15.9 13.9 95 0.4 CALM 0 0 0 0 1016.2 1016.2 10.0
15/12:30am 14.4 15.4 13.3 93 0.6 CALM 0 0 0 0 1016.0 1016.0 10.0
15/12:00am 15.4 16.1 14.4 94 0.6 NW 4 7 2 4 1016.3 1016.3 10.0
 
Date/Time
EDT
Temp
°C
App
Temp
°C
Dew
Point
°C
Rel
Hum
%
Delta-T
°C
Wind Press
QNH
hPa
Press
MSL
hPa
Rain since
9am
mm
Dir  Spd
km/h
Gust
km/h
Spd
kts
Gust
kts
14/11:58pm 15.4 16.1 14.4 94 0.6 NW 4 7 2 4 1016.3 1016.3 10.0
14/11:34pm 15.8 17.4 15.0 95 0.5 CALM 0 6 0 3 1016.4 1016.4 10.0
14/11:30pm 15.8 17.4 14.8 94 0.6 CALM 0 0 0 0 1016.3 1016.3 10.0
14/11:00pm 16.1 17.1 15.3 95 0.5 SW 4 7 2 4 1016.3 1016.3 10.0
14/10:30pm 16.3 18.0 15.3 94 0.6 CALM 0 0 0 0 1015.9 1015.9 10.0
14/10:09pm 16.1 17.8 15.1 94 0.6 CALM 0 0 0 0 1015.9 1015.9 10.0
14/10:00pm 15.9 17.5 14.8 93 0.6 CALM 0 0 0 0 1015.8 1015.8 10.0
14/09:30pm 16.5 18.3 15.5 94 0.6 CALM 0 0 0 0 1016.0 1016.0 10.0
14/09:00pm 16.1 17.7 14.8 92 0.7 CALM 0 0 0 0 1015.8 1015.8 10.0
14/08:30pm 16.3 17.9 14.8 91 0.9 CALM 0 0 0 0 1015.3 1015.3 10.0
14/08:00pm 16.8 18.5 15.2 90 0.9 CALM 0 0 0 0 1014.9 1014.9 10.0
14/07:30pm 17.6 18.0 15.4 87 1.3 ESE 7 11 4 6 1014.5 1014.5 10.0
14/07:00pm 18.4 18.5 15.6 84 1.6 SE 9 13 5 7 1014.1 1014.1 10.0
14/06:30pm 18.9 18.8 16.0 83 1.7 SE 11 15 6 8 1013.8 1013.8 10.0
14/06:00pm 19.1 18.7 16.3 84 1.7 SE 13 20 7 11 1013.5 1013.5 10.0
14/05:30pm 19.4 18.9 16.8 85 1.6 ESE 15 20 8 11 1013.5 1013.5 10.0
14/05:00pm 19.4 19.8 17.2 87 1.3 E 11 19 6 10 1013.5 1013.5 10.0
14/04:30pm 20.9 22.3 18.7 87 1.4 ESE 9 13 5 7 1013.3 1013.3 10.0
14/04:00pm 19.1 21.4 17.6 91 0.9 SE 2 7 1 4 1013.5 1013.5 10.0
14/03:30pm 18.3 19.6 17.1 93 0.7 WSW 6 9 3 5 1013.6 1013.6 10.0
14/03:11pm 18.1 19.4 17.1 94 0.6 SW 6 9 3 5 1013.6 1013.6 10.0
14/03:00pm 17.9 18.5 16.9 94 0.6 SSW 9 13 5 7 1013.7 1013.7 10.0
14/02:30pm 18.0 18.4 17.2 95 0.5 SSW 11 19 6 10 1013.9 1013.9 9.4
14/02:00pm 18.1 19.9 17.5 96 0.4 SW 4 11 2 6 1013.9 1013.9 8.2
14/01:59pm 18.1 19.9 17.5 96 0.4 SW 4 11 2 6 1013.9 1013.9 8.2
14/01:30pm 18.0 20.6 17.4 96 0.4 CALM 0 0 0 0 1013.8 1013.8 8.0
14/01:16pm 17.8 19.1 17.2 96 0.4 SSW 6 9 3 5 1013.9 1013.9 8.0
14/01:00pm 17.9 18.3 17.3 96 0.4 S 11 15 6 8 1013.9 1013.9 7.8
14/12:37pm 18.2 19.1 17.6 96 0.4 S 9 11 5 6 1014.1 1014.1 6.0
14/12:30pm 18.3 19.3 17.7 96 0.4 S 9 11 5 6 1014.2 1014.2 4.6
14/12:17pm 18.2 18.4 17.6 96 0.4 SSE 13 19 7 10 1014.1 1014.1 3.2
14/12:05pm 18.3 18.5 17.7 96 0.4 SSE 13 15 7 8 1014.2 1014.2 3.0
14/12:00pm 18.2 18.3 17.4 95 0.5 SSE 13 17 7 9 1014.3 1014.3 3.0
14/11:30am 18.7 19.7 17.7 94 0.6 SE 9 11 5 6 1014.6 1014.6 1.8
14/11:00am 18.6 20.4 17.4 93 0.7 SE 4 9 2 5 1014.8 1014.8 0.2
14/10:30am 18.8 21.4 17.5 92 0.8 CALM 0 0 0 0 1014.7 1014.7 0.2
14/10:04am 19.1 21.5 17.9 93 0.7 SE 2 9 1 5 1014.5 1014.5 0.2
14/10:00am 19.1 21.4 17.8 92 0.8 SSE 2 9 1 5 1014.4 1014.4 0.2
14/09:30am 18.6 21.2 17.4 93 0.7 CALM 0 0 0 0 1014.7 1014.7 0.0
14/09:00am 18.3 20.8 17.3 94 0.6 CALM 0 0 0 0 1014.7 1014.7 2.2
14/08:30am 17.9 20.3 16.9 94 0.6 CALM 0 0 0 0 1014.5 1014.5 2.0
14/08:00am 17.5 19.8 16.7 95 0.5 CALM 0 0 0 0 1014.4 1014.4 1.8
14/07:30am 17.2 18.1 16.2 94 0.6 S 6 11 3 6 1014.1 1014.1 1.6
14/07:00am 17.3 19.4 16.3 94 0.6 CALM 0 0 0 0 1013.9 1013.9 1.4
14/06:30am 17.2 18.5 16.2 94 0.6 SW 4 7 2 4 1013.6 1013.6 1.2
14/06:00am 17.2 18.9 16.2 94 0.6 WSW 2 7 1 4 1013.3 1013.3 0.8
14/05:30am 17.2 18.9 16.1 93 0.7 WSW 2 7 1 4 1013.0 1013.0 0.6
14/05:00am 17.3 19.3 16.0 92 0.8 CALM 0 0 0 0 1012.6 1012.6 0.4
14/04:30am 17.6 18.6 16.3 92 0.8 NNE 6 9 3 5 1012.5 1012.5 0.2
14/04:00am 17.5 18.2 16.2 92 0.8 NNE 7 9 4 5 1012.4 1012.4 0.0
14/03:30am 17.2 19.0 15.5 90 1.0 CALM 0 0 0 0 1012.1 1012.1 0.0
14/03:00am 17.3 19.1 15.5 89 1.1 CALM 0 0 0 0 1012.4 1012.4 0.0
14/02:30am 17.4 19.2 15.4 88 1.2 CALM 0 0 0 0 1012.6 1012.6 0.0
14/02:00am 17.6 19.1 15.6 88 1.2 SSW 2 9 1 5 1013.1 1013.1 0.0
14/01:30am 17.7 19.7 15.9 89 1.1 CALM 0 0 0 0 1013.4 1013.4 0.0
14/01:11am 17.9 19.9 15.9 88 1.2 CALM 0 0 0 0 1013.7 1013.7 0.0
14/01:00am 17.9 19.9 15.9 88 1.2 CALM 0 0 0 0 1013.8 1013.8 0.0
14/12:38am 18.1 20.1 15.9 87 1.3 CALM 0 0 0 0 1013.8 1013.8 0.0
14/12:30am 18.1 20.0 15.7 86 1.4 CALM 0 0 0 0 1014.0 1014.0 0.0
14/12:00am 18.4 20.4 16.0 86 1.4 CALM 0 0 0 0 1014.2 1014.2 0.0
 
Date/Time
EDT
Temp
°C
App
Temp
°C
Dew
Point
°C
Rel
Hum
%
Delta-T
°C
Wind Press
QNH
hPa
Press
MSL
hPa
Rain since
9am
mm
Dir  Spd
km/h
Gust
km/h
Spd
kts
Gust
kts
13/11:30pm 18.6 20.6 16.0 85 1.5 CALM 0 0 0 0 1014.3 1014.3 0.0
13/11:00pm 18.6 20.5 15.7 83 1.7 CALM 0 0 0 0 1014.5 1014.5 0.0
13/10:30pm 19.0 21.0 15.9 82 1.8 CALM 0 0 0 0 1014.7 1014.7 0.0
13/10:00pm 19.3 19.6 16.0 81 2.0 N 9 15 5 8 1014.9 1014.9 0.0
13/09:30pm 19.5 19.0 16.0 80 2.1 NNE 13 22 7 12 1014.9 1014.9 0.0
13/09:00pm 19.3 19.1 15.8 80 2.1 N 11 19 6 10 1014.8 1014.8 0.0
13/08:30pm 19.4 20.5 15.5 78 2.3 N 4 9 2 5 1014.7 1014.7 0.0
13/08:00pm 19.9 20.2 15.1 74 2.8 NNE 7 20 4 11 1014.3 1014.3 0.0
13/07:30pm 19.9 18.6 14.9 73 2.9 NE 15 22 8 12 1014.1 1014.1 0.0
13/07:00pm 20.3 20.0 15.5 74 2.8 NE 11 17 6 9 1014.0 1014.0 0.0
13/06:30pm 20.5 21.3 15.9 75 2.7 N 6 11 3 6 1013.6 1013.6 0.0
13/06:00pm 20.2 20.6 15.2 73 2.9 ENE 7 11 4 6 1013.2 1013.2 0.0
13/05:30pm 20.7 21.2 15.5 72 3.1 NE 7 15 4 8 1013.1 1013.1 0.0
13/05:00pm 20.4 19.7 15.4 73 3.0 NE 13 20 7 11 1012.9 1012.9 0.0
13/04:30pm 20.8 20.5 15.4 71 3.2 NE 11 20 6 11 1013.0 1013.0 0.0
13/04:00pm 21.3 21.0 15.4 69 3.5 NE 11 17 6 9 1013.4 1013.4 0.0
13/03:30pm 21.0 21.4 16.4 75 2.8 NE 9 19 5 10 1013.4 1013.4 0.0
13/03:00pm 21.1 21.5 15.4 70 3.4 NE 7 13 4 7 1013.7 1013.7 0.0
13/02:30pm 21.2 20.5 15.3 69 3.5 NE 13 24 7 13 1013.3 1013.3 0.0

Other Formats:

Comma delimited format used in spreadsheet applications
http://www.bom.gov.au/fwo/IDN60801/IDN60801.95929.axf

JavaScript Object Notation format (JSON) in row-major order
http://www.bom.gov.au/fwo/IDN60801/IDN60801.95929.json